Time;durP1;ratioP1;P1;durP2;ratioP2;P2;SDS_P1;SDS_P2;PMS_P1;PMS_P2;Temp;Humidity;BMP_temperature;BMP_pressure;BME280_temperature;BME280_humidity;BME280_pressure;Samples;Min_cycle;Max_cycle;Signal;HPM_P1;HPM_P2
2023/01/30 05:02:06;;;;;;;1.55;1.55;;;5.70;99.90;;;;;;5159387;23;20235;-67
2023/01/30 05:04:33;;;;;;;1.15;1.13;;;5.80;99.90;;;;;;4929445;29;20218;-67
2023/01/30 05:06:59;;;;;;;1.52;1.50;;;5.80;99.90;;;;;;4931469;29;20308;-69
2023/01/30 05:09:26;;;;;;;10.32;3.00;;;5.80;99.90;;;;;;4934855;29;20211;-68
2023/01/30 05:11:53;;;;;;;3.22;2.70;;;5.80;99.90;;;;;;4934839;29;20229;-67
2023/01/30 05:14:20;;;;;;;1.40;0.73;;;5.80;99.90;;;;;;4932093;29;20218;-69
2023/01/30 05:16:46;;;;;;;4.68;2.65;;;5.80;99.90;;;;;;4934842;29;20226;-67
2023/01/30 05:19:14;;;;;;;1.35;1.35;;;5.80;99.90;;;;;;4934439;29;20239;-68
2023/01/30 05:21:41;;;;;;;1.40;1.38;;;5.80;99.90;;;;;;4933727;29;20246;-67
2023/01/30 05:24:08;;;;;;;2.50;1.00;;;5.80;99.90;;;;;;4933860;29;20590;-69
2023/01/30 05:26:35;;;;;;;2.45;2.35;;;5.80;99.90;;;;;;4934005;29;20219;-68
2023/01/30 05:29:02;;;;;;;0.75;0.75;;;5.80;99.90;;;;;;4934662;29;20207;-65
2023/01/30 05:31:29;;;;;;;1.65;0.88;;;5.80;99.90;;;;;;4932936;29;20318;-67
2023/01/30 05:33:55;;;;;;;1.00;0.90;;;5.80;99.90;;;;;;4929242;29;20352;-66
2023/01/30 05:36:24;;;;;;;0.30;0.30;;;5.80;99.90;;;;;;4953166;23;20239;-68
2023/01/30 05:38:51;;;;;;;1.05;1.05;;;5.70;99.90;;;;;;4922949;29;20235;-68
2023/01/30 05:41:18;;;;;;;0.80;0.80;;;5.70;99.90;;;;;;4926649;29;20225;-68
2023/01/30 05:43:48;;;;;;;0.63;0.63;;;5.70;99.90;;;;;;4927626;29;20219;-67
2023/01/30 05:46:15;;;;;;;0.63;0.63;;;5.70;99.90;;;;;;4925542;29;20231;-68
2023/01/30 05:48:41;;;;;;;3.50;0.50;;;5.70;99.90;;;;;;4923830;29;20238;-68
2023/01/30 05:51:17;;;;;;;1.15;0.73;;;5.70;99.90;;;;;;4930440;29;20699;-69
2023/01/30 05:53:45;;;;;;;0.60;0.60;;;5.70;99.90;;;;;;4923159;29;20271;-67
2023/01/30 05:56:12;;;;;;;0.20;0.20;;;5.70;99.90;;;;;;4924246;29;20243;-67
2023/01/30 05:58:39;;;;;;;2.60;1.05;;;5.70;99.90;;;;;;4922712;29;20223;-67
2023/01/30 06:01:08;;;;;;;0.38;0.38;;;5.70;99.90;;;;;;4927427;29;20222;-68
2023/01/30 06:03:35;;;;;;;0.65;0.20;;;5.70;99.90;;;;;;4912676;29;20223;-69
2023/01/30 06:06:02;;;;;;;0.10;0.10;;;5.70;99.90;;;;;;4914919;29;20265;-68
2023/01/30 06:08:30;;;;;;;0.40;0.40;;;5.60;99.90;;;;;;4911361;29;20219;-68
2023/01/30 06:11:01;;;;;;;2.25;0.70;;;5.60;99.90;;;;;;4925496;29;20222;-69
2023/01/30 06:13:28;;;;;;;1.08;0.50;;;5.60;99.90;;;;;;4910574;29;20668;-67
2023/01/30 06:15:55;;;;;;;0.90;0.35;;;5.60;99.90;;;;;;4918339;29;20217;-67
2023/01/30 06:18:21;;;;;;;1.23;0.47;;;5.60;99.90;;;;;;4913766;29;20231;-70
2023/01/30 06:20:48;;;;;;;0.95;0.95;;;5.50;99.90;;;;;;4922488;29;20214;-69
2023/01/30 06:23:15;;;;;;;1.23;0.57;;;5.40;99.90;;;;;;4918433;29;20574;-69
2023/01/30 06:25:43;;;;;;;0.10;0.10;;;5.40;99.90;;;;;;4924967;29;20548;-67
2023/01/30 06:28:12;;;;;;;0.22;0.22;;;5.40;99.90;;;;;;4918147;29;20237;-68
2023/01/30 06:30:39;;;;;;;0.20;0.20;;;5.30;99.90;;;;;;4924193;29;20225;-68
2023/01/30 06:33:06;;;;;;;0.10;0.10;;;5.30;99.90;;;;;;4919840;29;20210;-68
2023/01/30 06:35:33;;;;;;;0.20;0.20;;;5.30;99.90;;;;;;4912160;29;20227;-68
2023/01/30 06:38:00;;;;;;;0.10;0.10;;;5.30;99.90;;;;;;4904042;29;20269;-69
2023/01/30 06:40:26;;;;;;;0.50;0.50;;;5.30;99.90;;;;;;4922526;29;20242;-68
2023/01/30 06:42:53;;;;;;;3.80;0.95;;;5.30;99.90;;;;;;4922578;29;20226;-68
2023/01/30 06:45:21;;;;;;;0.20;0.20;;;5.30;99.90;;;;;;4913584;29;20644;-69
2023/01/30 06:47:50;;;;;;;2.15;0.43;;;5.20;99.90;;;;;;4911841;29;20226;-69
2023/01/30 06:50:18;;;;;;;0.20;0.20;;;5.20;99.90;;;;;;4915347;29;20206;-68
2023/01/30 06:52:47;;;;;;;0.60;0.60;;;5.20;99.90;;;;;;4911263;29;20720;-69
2023/01/30 06:55:16;;;;;;;0.32;0.32;;;5.20;99.90;;;;;;4907027;29;20814;-69
2023/01/30 06:57:43;;;;;;;0.50;0.50;;;5.10;99.90;;;;;;4923098;29;20712;-68
2023/01/30 07:00:12;;;;;;;8.93;0.85;;;5.10;99.90;;;;;;4917736;29;20716;-68
2023/01/30 07:02:40;;;;;;;1.02;1.02;;;5.20;99.90;;;;;;4912782;29;20203;-68
2023/01/30 07:05:09;;;;;;;0.20;0.20;;;5.10;99.90;;;;;;4915325;29;20219;-68
2023/01/30 07:07:36;;;;;;;0.40;0.40;;;5.10;99.90;;;;;;4916544;29;20245;-68
2023/01/30 07:10:04;;;;;;;13.48;0.85;;;5.20;99.90;;;;;;4909144;29;20548;-68
2023/01/30 07:12:31;;;;;;;0.22;0.22;;;5.20;99.90;;;;;;4923466;29;20207;-70
2023/01/30 07:14:58;;;;;;;0.10;0.10;;;5.10;99.90;;;;;;4913020;29;20203;-68
2023/01/30 07:17:25;;;;;;;0.40;0.40;;;5.10;99.90;;;;;;4916530;29;20246;-68
2023/01/30 07:19:53;;;;;;;0.20;0.20;;;5.10;99.90;;;;;;4914507;29;20238;-68
2023/01/30 07:22:20;;;;;;;0.20;0.20;;;5.10;99.90;;;;;;4922176;29;20234;-68
2023/01/30 07:24:46;;;;;;;0.55;0.40;;;5.00;99.90;;;;;;4916213;29;20217;-68
2023/01/30 07:27:13;;;;;;;0.10;0.10;;;5.00;99.90;;;;;;4922563;29;20243;-68
2023/01/30 07:29:40;;;;;;;1.15;0.30;;;5.00;99.90;;;;;;4913401;29;20227;-68
2023/01/30 07:32:11;;;;;;;1.10;1.00;;;5.00;99.90;;;;;;4929010;29;20563;-68
2023/01/30 07:34:39;;;;;;;4.05;0.40;;;4.90;99.90;;;;;;4910978;29;20202;-68
2023/01/30 07:37:07;;;;;;;0.55;0.55;;;4.90;99.90;;;;;;4922044;29;20626;-68
2023/01/30 07:39:34;;;;;;;0.15;0.15;;;4.90;99.90;;;;;;4911503;29;20237;-69
2023/01/30 07:42:01;;;;;;;5.75;1.83;;;4.80;99.90;;;;;;4901441;29;20221;-68
2023/01/30 07:44:28;;;;;;;0.20;0.20;;;4.80;99.90;;;;;;4917448;29;20669;-69
2023/01/30 07:46:55;;;;;;;1.38;1.38;;;4.80;99.90;;;;;;4925588;29;20235;-70
2023/01/30 07:49:22;;;;;;;0.30;0.30;;;4.90;99.90;;;;;;4913017;29;20203;-68
2023/01/30 07:51:49;;;;;;;0.30;0.30;;;4.90;99.90;;;;;;4921952;29;20587;-67
2023/01/30 07:54:17;;;;;;;7.78;1.23;;;5.00;99.90;;;;;;4911305;29;20234;-68
2023/01/30 07:56:43;;;;;;;1.42;1.42;;;5.10;99.90;;;;;;4910945;29;20239;-68
2023/01/30 07:59:11;;;;;;;0.52;0.52;;;5.10;99.90;;;;;;4911302;29;20230;-68
2023/01/30 08:01:38;;;;;;;8.38;0.40;;;5.10;99.90;;;;;;4919944;29;20222;-68
2023/01/30 08:04:05;;;;;;;0.50;0.50;;;5.10;99.90;;;;;;4916438;29;20234;-67
2023/01/30 08:06:35;;;;;;;2.05;1.95;;;5.10;99.90;;;;;;4908241;29;20247;-68
2023/01/30 08:09:02;;;;;;;0.88;0.88;;;5.20;99.90;;;;;;4913209;29;20748;-68
2023/01/30 08:11:30;;;;;;;4.47;2.28;;;5.20;99.90;;;;;;4916369;29;20225;-68
2023/01/30 08:13:57;;;;;;;0.88;0.88;;;5.20;99.90;;;;;;4912194;29;20638;-69
2023/01/30 08:16:24;;;;;;;7.63;2.85;;;5.20;99.90;;;;;;4914769;29;20240;-68
2023/01/30 08:18:51;;;;;;;0.90;0.90;;;5.30;99.90;;;;;;4913574;29;20584;-68
2023/01/30 08:21:17;;;;;;;0.95;0.95;;;5.30;99.90;;;;;;4917121;29;20665;-68
2023/01/30 08:23:44;;;;;;;2.28;0.85;;;5.30;99.90;;;;;;4913971;29;20239;-68
2023/01/30 08:26:11;;;;;;;0.95;0.40;;;5.40;99.90;;;;;;4933942;29;20323;-69
2023/01/30 08:28:40;;;;;;;1.75;0.93;;;5.40;99.90;;;;;;4923620;29;20214;-70
2023/01/30 08:31:10;;;;;;;2.85;1.45;;;5.40;99.90;;;;;;4920243;29;20621;-71
2023/01/30 08:33:37;;;;;;;1.67;1.58;;;5.50;99.90;;;;;;4918861;29;20270;-69
2023/01/30 08:36:04;;;;;;;1.65;0.93;;;5.60;99.90;;;;;;4920560;29;20243;-68
2023/01/30 08:38:31;;;;;;;2.00;1.90;;;5.60;99.90;;;;;;4919236;29;20215;-68
2023/01/30 08:40:59;;;;;;;3.83;1.38;;;5.70;99.90;;;;;;4916719;29;20250;-68
2023/01/30 08:43:27;;;;;;;1.70;1.60;;;5.80;99.90;;;;;;4921018;29;20706;-69
2023/01/30 08:45:56;;;;;;;1.55;0.80;;;5.90;99.90;;;;;;4914701;29;20211;-69
2023/01/30 08:48:23;;;;;;;1.02;1.02;;;5.90;99.90;;;;;;4915696;29;20832;-69
2023/01/30 08:50:51;;;;;;;0.45;0.45;;;5.90;99.90;;;;;;4923259;29;20208;-68
2023/01/30 08:53:19;;;;;;;2.10;1.20;;;5.90;99.90;;;;;;4923386;29;20677;-69
2023/01/30 08:55:45;;;;;;;0.30;0.30;;;5.90;99.90;;;;;;4916831;29;20222;-69
2023/01/30 08:58:12;;;;;;;3.92;1.50;;;5.90;99.90;;;;;;4909939;29;20229;-69
2023/01/30 09:00:43;;;;;;;1.65;1.60;;;5.90;99.90;;;;;;4927337;29;20232;-69
2023/01/30 09:03:12;;;;;;;2.55;2.42;;;5.90;99.90;;;;;;4907841;29;20211;-69
2023/01/30 09:05:38;;;;;;;1.75;1.08;;;5.80;99.90;;;;;;4917877;29;20204;-69
2023/01/30 09:08:05;;;;;;;1.45;1.40;;;5.80;99.90;;;;;;4915783;29;20693;-69
2023/01/30 09:10:32;;;;;;;7.10;2.35;;;5.70;99.90;;;;;;4925295;29;20328;-68
2023/01/30 09:12:59;;;;;;;1.88;0.73;;;5.70;99.90;;;;;;4918750;29;20676;-68
2023/01/30 09:15:25;;;;;;;0.73;0.73;;;5.60;99.90;;;;;;4921701;29;20222;-68
2023/01/30 09:17:52;;;;;;;1.65;1.40;;;5.70;99.90;;;;;;4926928;29;20227;-68
2023/01/30 09:20:20;;;;;;;6.40;0.80;;;5.70;99.90;;;;;;4916583;29;20227;-68
2023/01/30 09:22:48;;;;;;;5.22;2.03;;;5.70;99.90;;;;;;4918461;29;20570;-68
2023/01/30 09:25:15;;;;;;;25.42;1.38;;;5.70;99.90;;;;;;4922292;29;20221;-69
2023/01/30 09:27:43;;;;;;;4.50;1.70;;;5.80;99.90;;;;;;4910696;29;20231;-67
2023/01/30 09:30:11;;;;;;;20.42;3.47;;;5.80;99.90;;;;;;4917449;29;20310;-69
2023/01/30 09:32:38;;;;;;;3.70;1.33;;;5.90;99.90;;;;;;4916749;29;20203;-69
2023/01/30 09:35:05;;;;;;;26.73;1.77;;;5.90;99.90;;;;;;4910503;29;20696;-69
2023/01/30 09:37:33;;;;;;;6.93;1.40;;;5.90;99.90;;;;;;4910655;29;20928;-69
2023/01/30 09:40:00;;;;;;;0.55;0.55;;;6.00;99.90;;;;;;4916974;29;20231;-69
2023/01/30 09:42:45;;;;;;;4.80;1.33;;;6.00;99.90;;;;;;4921494;29;20215;-68
2023/01/30 09:45:28;;;;;;;2.47;1.40;;;6.00;99.90;;;;;;4910609;29;20208;-69
2023/01/30 09:48:06;;;;;;;10.43;2.08;;;6.10;99.90;;;;;;4914812;29;20301;-68
2023/01/30 09:50:52;;;;;;;1.95;1.15;;;6.20;99.90;;;;;;4922264;29;20248;-69
2023/01/30 09:53:25;;;;;;;1.95;1.35;;;6.20;99.90;;;;;;4911414;29;20308;-68
2023/01/30 09:55:52;;;;;;;7.32;2.88;;;6.20;99.90;;;;;;4917148;29;20220;-68
2023/01/30 09:58:21;;;;;;;0.75;0.75;;;6.30;99.90;;;;;;4926723;29;20215;-68
2023/01/30 10:00:49;;;;;;;0.20;0.20;;;6.40;99.90;;;;;;4910031;29;20258;-69
2023/01/30 10:03:19;;;;;;;35.97;2.45;;;6.40;99.90;;;;;;4921312;29;20292;-68
2023/01/30 10:05:50;;;;;;;0.43;0.43;;;6.40;99.90;;;;;;4923714;29;20272;-68
2023/01/30 10:08:45;;;;;;;4.47;1.00;;;6.40;99.90;;;;;;4924223;29;20212;-68
2023/01/30 10:11:23;;;;;;;1.65;1.25;;;6.40;99.90;;;;;;4914874;29;20213;-68
2023/01/30 10:14:13;;;;;;;1.85;0.50;;;6.50;99.90;;;;;;4912861;29;20240;-68
2023/01/30 10:16:46;;;;;;;1.42;1.42;;;6.60;99.90;;;;;;4908075;29;20759;-68
2023/01/30 10:19:38;;;;;;;1.73;0.93;;;6.60;99.90;;;;;;4918648;29;20214;-68
2023/01/30 10:22:19;;;;;;;6.38;3.42;;;6.70;99.90;;;;;;4908910;29;20237;-68
2023/01/30 10:24:59;;;;;;;2.05;1.85;;;6.80;99.90;;;;;;4911473;29;20208;-68
2023/01/30 10:27:29;;;;;;;2.35;1.27;;;6.90;99.90;;;;;;4918834;29;20227;-69
2023/01/30 10:30:01;;;;;;;5.88;1.40;;;7.00;99.90;;;;;;4921616;29;20511;-67
2023/01/30 10:32:31;;;;;;;10.77;0.93;;;7.00;99.90;;;;;;4915323;29;20216;-68
2023/01/30 10:35:04;;;;;;;1.35;1.10;;;7.10;99.90;;;;;;4911464;29;20228;-67
2023/01/30 10:37:40;;;;;;;1.13;0.98;;;7.10;99.90;;;;;;4900740;29;20255;-68
2023/01/30 10:40:18;;;;;;;10.32;1.58;;;7.20;99.90;;;;;;4902889;29;20216;-69
2023/01/30 10:42:53;;;;;;;4.13;3.00;;;7.20;99.90;;;;;;4909980;29;20238;-70
2023/01/30 10:45:24;;;;;;;1.65;1.55;;;7.20;99.90;;;;;;4908576;29;20204;-69
2023/01/30 10:48:03;;;;;;;1.08;1.08;;;7.20;99.90;;;;;;4918094;29;20227;-67
2023/01/30 10:50:42;;;;;;;7.10;0.95;;;7.20;99.90;;;;;;4916615;29;20288;-70
2023/01/30 10:53:17;;;;;;;2.20;0.82;;;7.40;99.90;;;;;;4913693;29;20212;-69
2023/01/30 10:55:51;;;;;;;5.32;0.90;;;7.60;99.90;;;;;;4922749;29;20219;-69
2023/01/30 10:58:26;;;;;;;1.10;0.75;;;7.70;99.90;;;;;;4916128;29;20217;-69
2023/01/30 11:00:59;;;;;;;1.92;1.38;;;7.80;99.90;;;;;;4912041;29;20314;-68
2023/01/30 11:03:35;;;;;;;3.10;1.23;;;7.80;99.90;;;;;;4913898;29;20205;-69
2023/01/30 11:06:05;;;;;;;2.42;1.48;;;7.70;99.90;;;;;;4921360;29;20235;-68
2023/01/30 11:08:35;;;;;;;1.17;1.17;;;7.70;99.90;;;;;;4921849;29;20217;-68
2023/01/30 11:11:26;;;;;;;4.00;1.13;;;7.70;99.90;;;;;;4913516;29;20213;-69
2023/01/30 11:14:02;;;;;;;8.88;0.95;;;7.80;99.90;;;;;;4908691;29;20212;-69
2023/01/30 11:16:30;;;;;;;1.10;0.47;;;7.80;99.90;;;;;;4914046;29;20256;-69
2023/01/30 11:18:58;;;;;;;3.13;1.02;;;7.90;99.90;;;;;;4913265;29;20220;-70
2023/01/30 11:21:29;;;;;;;6.28;0.75;;;7.90;99.90;;;;;;4913148;29;20229;-69
2023/01/30 11:23:56;;;;;;;1.33;1.33;;;7.90;99.90;;;;;;4917162;29;20213;-69
2023/01/30 11:26:29;;;;;;;5.60;1.52;;;7.80;99.90;;;;;;4920010;29;20245;-69
2023/01/30 11:28:56;;;;;;;11.50;2.28;;;7.60;99.90;;;;;;4911037;29;20604;-69
2023/01/30 11:31:26;;;;;;;5.38;3.13;;;7.50;99.90;;;;;;4911221;29;20292;-69
2023/01/30 11:34:02;;;;;;;1.90;1.80;;;7.30;99.90;;;;;;4913309;29;20655;-68
2023/01/30 11:36:31;;;;;;;1.45;1.38;;;7.10;99.90;;;;;;4913773;29;20251;-68
2023/01/30 11:38:59;;;;;;;15.02;3.00;;;6.90;99.90;;;;;;4927156;29;20686;-68
2023/01/30 11:41:28;;;;;;;10.15;1.33;;;6.80;99.90;;;;;;4920242;29;20277;-67
2023/01/30 11:44:01;;;;;;;1.40;1.30;;;6.70;99.90;;;;;;4909986;29;21058;-67
2023/01/30 11:46:32;;;;;;;2.85;0.38;;;6.40;99.90;;;;;;4912187;29;20252;-67
2023/01/30 11:49:01;;;;;;;0.65;0.65;;;6.20;99.90;;;;;;4918189;29;20772;-67
2023/01/30 11:51:28;;;;;;;1.30;1.25;;;6.10;99.90;;;;;;4910441;29;20215;-67
2023/01/30 11:53:59;;;;;;;0.20;0.20;;;5.90;99.90;;;;;;4911655;29;20204;-67
2023/01/30 11:56:33;;;;;;;1.20;0.55;;;5.80;99.90;;;;;;4921629;29;20243;-68
2023/01/30 11:59:03;;;;;;;1.15;1.05;;;5.60;99.90;;;;;;4916714;29;20220;-67
2023/01/30 12:01:32;;;;;;;0.43;0.43;;;5.50;99.90;;;;;;4916443;29;20239;-67
2023/01/30 12:04:00;;;;;;;0.68;0.30;;;5.30;99.90;;;;;;4919584;29;20761;-68
2023/01/30 12:06:31;;;;;;;1.08;1.08;;;5.20;99.90;;;;;;4928209;29;20257;-68
2023/01/30 12:08:58;;;;;;;2.03;1.70;;;5.20;99.90;;;;;;4922519;29;20677;-68
2023/01/30 12:11:28;;;;;;;1.15;0.30;;;5.20;99.90;;;;;;4924389;29;20228;-68
2023/01/30 12:14:08;;;;;;;6.70;1.73;;;5.10;99.90;;;;;;4920814;29;20203;-68
2023/01/30 12:16:47;;;;;;;1.05;0.50;;;5.20;99.90;;;;;;4921644;29;20237;-69
2023/01/30 12:19:26;;;;;;;2.17;0.73;;;5.30;99.90;;;;;;4916380;29;20215;-68
2023/01/30 12:22:01;;;;;;;0.20;0.20;;;5.30;99.90;;;;;;4918025;29;20920;-68
2023/01/30 12:24:36;;;;;;;1.02;0.90;;;5.50;99.90;;;;;;4913840;29;20211;-68
2023/01/30 12:27:09;;;;;;;0.95;0.95;;;5.50;99.90;;;;;;4916633;29;20245;-68
2023/01/30 12:29:44;;;;;;;0.10;0.10;;;5.60;99.90;;;;;;4921353;29;20221;-68
2023/01/30 12:32:14;;;;;;;0.40;0.40;;;5.60;99.90;;;;;;4931069;29;20210;-68
2023/01/30 12:34:44;;;;;;;0.30;0.30;;;5.60;99.90;;;;;;4919548;29;20215;-68
2023/01/30 12:37:29;;;;;;;0.30;0.30;;;5.60;99.90;;;;;;4919223;29;20236;-68
2023/01/30 12:40:07;;;;;;;0.73;0.73;;;5.60;99.90;;;;;;4925131;29;20721;-68
2023/01/30 12:42:59;;;;;;;0.50;0.22;;;5.60;99.90;;;;;;4917373;29;20212;-69
2023/01/30 12:45:30;;;;;;;0.30;0.30;;;5.60;99.90;;;;;;4910303;29;20222;-67
2023/01/30 12:48:20;;;;;;;2.47;1.23;;;5.60;99.90;;;;;;4925732;29;20222;-68
2023/01/30 12:51:00;;;;;;;0.68;0.68;;;5.60;99.90;;;;;;4914089;29;20204;-69
2023/01/30 12:53:38;;;;;;;1.75;1.65;;;5.50;99.90;;;;;;4915002;29;20215;-69
2023/01/30 12:56:35;;;;;;;4.63;0.82;;;5.40;99.90;;;;;;4915457;29;20235;-69
2023/01/30 12:59:10;;;;;;;1.85;1.00;;;5.30;99.90;;;;;;4929972;29;20225;-69
2023/01/30 13:01:46;;;;;;;1.20;0.73;;;5.40;99.90;;;;;;4926682;29;20219;-68
2023/01/30 13:04:21;;;;;;;0.10;0.10;;;5.30;99.90;;;;;;4914218;29;20222;-69
2023/01/30 13:07:02;;;;;;;0.63;0.63;;;5.20;99.90;;;;;;4922947;29;20274;-69
2023/01/30 13:09:42;;;;;;;8.32;1.85;;;5.20;99.90;;;;;;4918821;29;20211;-69
2023/01/30 13:12:16;;;;;;;1.70;1.67;;;5.20;99.90;;;;;;4906257;29;20830;-68
2023/01/30 13:14:52;;;;;;;2.97;2.00;;;5.20;99.90;;;;;;4916087;29;20204;-69
2023/01/30 13:17:45;;;;;;;0.90;0.90;;;5.20;99.90;;;;;;4907271;29;20227;-69
2023/01/30 13:20:29;;;;;;;11.75;1.85;;;5.20;99.90;;;;;;4913675;29;20214;-68
2023/01/30 13:23:01;;;;;;;0.45;0.43;;;5.30;99.90;;;;;;4915275;29;20293;-68
2023/01/30 13:25:36;;;;;;;0.60;0.60;;;5.40;99.90;;;;;;4914636;29;20223;-68
2023/01/30 13:28:09;;;;;;;0.75;0.30;;;5.40;99.90;;;;;;4920335;29;20237;-68
2023/01/30 13:30:36;;;;;;;3.05;0.63;;;5.50;99.90;;;;;;4930369;29;20208;-68
2023/01/30 13:33:11;;;;;;;0.30;0.30;;;5.60;99.90;;;;;;4927390;29;20207;-69
2023/01/30 13:35:43;;;;;;;0.50;0.50;;;5.70;99.90;;;;;;4926540;29;20198;-68
2023/01/30 13:38:18;;;;;;;9.48;2.92;;;5.80;99.90;;;;;;4928370;29;20226;-68
2023/01/30 13:40:45;;;;;;;6.65;0.82;;;5.80;99.90;;;;;;4923689;29;20226;-68
2023/01/30 13:43:19;;;;;;;1.23;0.82;;;5.90;99.90;;;;;;4927747;29;20211;-68
2023/01/30 13:45:49;;;;;;;0.30;0.30;;;6.00;99.90;;;;;;4920332;29;20668;-68
2023/01/30 13:48:28;;;;;;;3.20;1.88;;;6.00;99.90;;;;;;4922998;29;20207;-67
2023/01/30 13:51:18;;;;;;;10.32;0.95;;;6.00;99.90;;;;;;4934539;29;20576;-68
2023/01/30 13:53:53;;;;;;;2.67;2.20;;;6.00;99.90;;;;;;4913181;29;20209;-68
2023/01/30 13:56:29;;;;;;;0.60;0.60;;;6.10;99.90;;;;;;4914511;29;20257;-68
2023/01/30 13:59:00;;;;;;;3.70;0.30;;;6.10;99.90;;;;;;4925807;29;20209;-68
2023/01/30 14:02:07;;;;;;;15.60;1.40;;;6.10;99.90;;;;;;4925652;29;20231;-69
2023/01/30 14:04:49;;;;;;;0.95;0.88;;;6.20;99.90;;;;;;4915678;29;20207;-68
2023/01/30 14:07:21;;;;;;;3.80;1.20;;;6.20;99.90;;;;;;4913271;29;20235;-69
2023/01/30 14:09:51;;;;;;;2.95;1.40;;;6.20;99.90;;;;;;4925014;29;20222;-69
2023/01/30 14:12:21;;;;;;;1.35;1.27;;;6.20;99.90;;;;;;4929464;29;20218;-69
2023/01/30 14:15:01;;;;;;;0.43;0.43;;;6.20;99.90;;;;;;4913280;29;20691;-69
2023/01/30 14:17:28;;;;;;;4.45;4.10;;;6.30;99.90;;;;;;4922704;29;20231;-69
2023/01/30 14:20:02;;;;;;;5.10;2.67;;;6.30;99.90;;;;;;4925017;29;20220;-69
2023/01/30 14:22:34;;;;;;;1.00;0.77;;;6.40;99.90;;;;;;4924379;29;20220;-68
2023/01/30 14:25:44;;;;;;;1.02;0.75;;;6.40;99.90;;;;;;4918016;29;20237;-68
2023/01/30 14:28:47;;;;;;;0.77;0.77;;;6.50;99.90;;;;;;4919258;29;20231;-69
2023/01/30 14:31:46;;;;;;;2.65;1.20;;;6.50;99.90;;;;;;4908317;29;20215;-68
2023/01/30 14:34:45;;;;;;;0.80;0.45;;;6.50;99.90;;;;;;4915525;29;20495;-68
2023/01/30 14:37:50;;;;;;;1.55;1.52;;;6.40;99.90;;;;;;4914899;29;20235;-68
2023/01/30 14:40:37;;;;;;;1.80;1.70;;;6.40;99.90;;;;;;4911929;29;20557;-69
2023/01/30 14:43:26;;;;;;;1.38;1.23;;;6.40;99.90;;;;;;4916793;29;20737;-69
2023/01/30 14:45:55;;;;;;;0.10;0.10;;;6.40;99.90;;;;;;4923625;29;20218;-69
2023/01/30 14:48:30;;;;;;;16.02;1.30;;;6.40;99.90;;;;;;4918301;29;20637;-69
2023/01/30 14:51:22;;;;;;;5.47;1.73;;;6.40;99.90;;;;;;4917876;29;20204;-69
2023/01/30 14:53:54;;;;;;;2.40;2.10;;;6.50;99.90;;;;;;4931749;29;20215;-68
2023/01/30 14:56:38;;;;;;;5.95;1.58;;;6.50;99.90;;;;;;4928836;29;20230;-69
2023/01/30 14:59:08;;;;;;;12.85;1.95;;;6.50;99.90;;;;;;4913432;29;20247;-68
2023/01/30 15:01:59;;;;;;;2.17;0.20;;;6.60;99.90;;;;;;4921461;29;20249;-69
2023/01/30 15:04:29;;;;;;;5.13;0.85;;;6.60;99.90;;;;;;4910046;29;20212;-68
2023/01/30 15:06:58;;;;;;;14.60;0.88;;;6.70;99.90;;;;;;4913984;29;20238;-68
2023/01/30 15:09:29;;;;;;;0.60;0.60;;;6.70;99.90;;;;;;4913121;29;20210;-69
2023/01/30 15:12:12;;;;;;;1.15;0.20;;;6.70;99.90;;;;;;4916785;29;20241;-69
2023/01/30 15:14:48;;;;;;;0.40;0.40;;;6.70;99.90;;;;;;4917436;29;20199;-69
2023/01/30 15:17:24;;;;;;;17.92;2.08;;;6.80;99.90;;;;;;4919595;29;20595;-69
2023/01/30 15:20:13;;;;;;;10.20;2.05;;;6.80;99.90;;;;;;4915432;29;20205;-69
2023/01/30 15:22:54;;;;;;;4.78;0.57;;;6.80;99.90;;;;;;4923336;29;20329;-69
2023/01/30 15:25:41;;;;;;;6.35;2.08;;;6.90;99.90;;;;;;4918748;29;20217;-69
2023/01/30 15:28:23;;;;;;;1.38;0.85;;;6.90;99.90;;;;;;4905349;29;20205;-69
2023/01/30 15:31:08;;;;;;;4.82;0.60;;;6.80;99.90;;;;;;4910399;29;20215;-69
2023/01/30 15:33:44;;;;;;;5.40;1.15;;;6.80;99.90;;;;;;4909698;29;20227;-68
2023/01/30 15:36:24;;;;;;;3.20;1.23;;;6.80;99.90;;;;;;4915091;29;20238;-69
2023/01/30 15:38:58;;;;;;;10.93;1.55;;;6.80;99.90;;;;;;4909172;29;20211;-68
2023/01/30 15:41:26;;;;;;;1.38;0.82;;;6.80;99.90;;;;;;4911131;29;20234;-69
2023/01/30 15:44:20;;;;;;;14.23;3.67;;;6.80;99.90;;;;;;4904159;29;20208;-68
2023/01/30 15:46:55;;;;;;;10.02;2.00;;;6.80;99.90;;;;;;4921787;29;20234;-69
2023/01/30 15:49:43;;;;;;;5.50;1.33;;;6.80;99.90;;;;;;4911729;29;20591;-69
2023/01/30 15:52:14;;;;;;;3.42;0.77;;;6.80;99.90;;;;;;4910309;29;20559;-69
2023/01/30 15:54:46;;;;;;;1.00;0.40;;;6.80;99.90;;;;;;4912514;29;20697;-70
2023/01/30 15:57:21;;;;;;;1.58;0.68;;;6.80;99.90;;;;;;4910963;29;20227;-69
2023/01/30 15:59:48;;;;;;;7.13;0.88;;;6.70;99.90;;;;;;4913132;29;20203;-68
2023/01/30 16:02:21;;;;;;;5.97;0.70;;;6.70;99.90;;;;;;4920649;29;20247;-68
2023/01/30 16:04:48;;;;;;;2.25;1.17;;;6.70;99.90;;;;;;4907260;29;20213;-68
2023/01/30 16:07:15;;;;;;;2.05;0.70;;;6.70;99.90;;;;;;4913030;29;20766;-68
2023/01/30 16:09:42;;;;;;;0.73;0.63;;;6.70;99.90;;;;;;4907107;29;20220;-68
2023/01/30 16:12:26;;;;;;;0.95;0.45;;;6.60;99.90;;;;;;4911605;29;20580;-69
2023/01/30 16:14:56;;;;;;;2.25;0.85;;;6.60;99.90;;;;;;4926180;29;20215;-69
2023/01/30 16:17:26;;;;;;;1.17;0.65;;;6.60;99.90;;;;;;4918150;29;20232;-68
2023/01/30 16:19:53;;;;;;;1.95;1.00;;;6.60;99.90;;;;;;4919033;29;20204;-68
2023/01/30 16:22:22;;;;;;;4.22;1.20;;;6.60;99.90;;;;;;4919108;29;20232;-69
2023/01/30 16:24:52;;;;;;;8.57;0.73;;;6.60;99.90;;;;;;4923356;29;20219;-69
2023/01/30 16:27:24;;;;;;;1.10;1.10;;;6.60;99.90;;;;;;4917585;29;20231;-69
2023/01/30 16:29:56;;;;;;;0.55;0.55;;;6.60;99.90;;;;;;4911290;29;20211;-69
2023/01/30 16:32:27;;;;;;;1.92;1.50;;;6.60;99.90;;;;;;4911419;29;20212;-68
2023/01/30 16:35:16;;;;;;;0.68;0.40;;;6.60;99.90;;;;;;4922988;29;20211;-69
2023/01/30 16:37:43;;;;;;;0.40;0.40;;;6.60;99.90;;;;;;4918916;29;20236;-68
2023/01/30 16:40:13;;;;;;;1.45;1.42;;;6.60;99.90;;;;;;4914625;29;20212;-70
2023/01/30 16:42:40;;;;;;;3.50;0.82;;;6.60;99.90;;;;;;4928989;29;20241;-69
2023/01/30 16:46:01;;;;;;;1.05;1.05;;;6.70;99.90;;;;;;4922692;29;20218;-68
2023/01/30 16:48:35;;;;;;;0.60;0.60;;;6.60;99.90;;;;;;4911214;29;20208;-68
2023/01/30 16:51:15;;;;;;;1.58;0.98;;;6.60;99.90;;;;;;4914529;29;20623;-69
2023/01/30 16:53:58;;;;;;;9.93;1.30;;;6.70;99.90;;;;;;4913287;29;20196;-69
2023/01/30 16:56:25;;;;;;;13.10;2.45;;;6.60;99.90;;;;;;4916415;29;20564;-67
2023/01/30 16:58:56;;;;;;;0.52;0.52;;;6.60;99.90;;;;;;4911649;29;20308;-70
2023/01/30 17:01:38;;;;;;;0.20;0.20;;;6.60;99.90;;;;;;4912294;29;20235;-71
2023/01/30 17:04:13;;;;;;;4.13;0.30;;;6.70;99.90;;;;;;4926294;29;20219;-68
2023/01/30 17:06:41;;;;;;;0.90;0.63;;;6.70;99.90;;;;;;4910911;29;20261;-68
2023/01/30 17:09:35;;;;;;;8.75;1.30;;;6.70;99.90;;;;;;4923101;29;20215;-69
2023/01/30 17:12:35;;;;;;;1.15;1.15;;;6.70;99.90;;;;;;4918764;29;20210;-69
2023/01/30 17:15:31;;;;;;;0.65;0.63;;;6.70;99.90;;;;;;4921855;29;20217;-69
2023/01/30 17:17:59;;;;;;;1.95;0.88;;;6.70;99.90;;;;;;4914652;29;20312;-69
2023/01/30 17:20:33;;;;;;;5.88;1.42;;;6.60;99.90;;;;;;4913014;29;20661;-70
2023/01/30 17:23:05;;;;;;;3.22;2.00;;;6.60;99.90;;;;;;4923636;29;20223;-69
2023/01/30 17:25:37;;;;;;;3.10;0.70;;;6.50;99.90;;;;;;4910885;29;20236;-69
2023/01/30 17:28:05;;;;;;;6.80;1.85;;;6.50;99.90;;;;;;4913905;29;20269;-69
2023/01/30 17:30:32;;;;;;;0.30;0.30;;;6.40;99.90;;;;;;4911639;29;20212;-70
2023/01/30 17:33:00;;;;;;;3.63;0.68;;;6.40;99.90;;;;;;4917584;29;20211;-68
2023/01/30 17:35:27;;;;;;;8.38;1.25;;;6.40;99.90;;;;;;4911218;29;20213;-68
2023/01/30 17:37:53;;;;;;;1.10;0.75;;;6.30;99.90;;;;;;4918532;29;20231;-69
2023/01/30 17:40:27;;;;;;;0.93;0.93;;;6.30;99.90;;;;;;4918792;29;20200;-69
2023/01/30 17:42:53;;;;;;;0.10;0.10;;;6.20;99.90;;;;;;4921256;29;20219;-68
2023/01/30 17:45:20;;;;;;;0.88;0.55;;;6.20;99.90;;;;;;4911761;29;20208;-69
2023/01/30 17:47:47;;;;;;;2.03;1.17;;;6.30;99.90;;;;;;4915925;29;20246;-69
2023/01/30 17:50:15;;;;;;;1.33;0.93;;;6.30;99.90;;;;;;4922141;29;20275;-69
2023/01/30 17:52:42;;;;;;;5.78;1.40;;;6.30;99.90;;;;;;4919066;29;20208;-68
2023/01/30 17:55:12;;;;;;;0.20;0.20;;;6.30;99.90;;;;;;4908299;29;20553;-69
2023/01/30 17:57:41;;;;;;;3.90;2.10;;;6.20;99.90;;;;;;4917758;29;20247;-69
2023/01/30 18:00:15;;;;;;;1.20;1.20;;;6.10;99.90;;;;;;4918311;29;20199;-69
2023/01/30 18:02:41;;;;;;;0.90;0.75;;;6.00;99.90;;;;;;4909804;29;20230;-69
2023/01/30 18:05:09;;;;;;;1.67;0.55;;;5.90;99.90;;;;;;4915081;29;20223;-69
2023/01/30 18:07:37;;;;;;;1.10;0.57;;;5.80;99.90;;;;;;4916333;29;20625;-69
2023/01/30 18:10:04;;;;;;;1.95;1.95;;;5.80;99.90;;;;;;4924533;29;20207;-67
2023/01/30 18:12:31;;;;;;;0.20;0.20;;;5.80;99.90;;;;;;4913644;29;20218;-68
2023/01/30 18:14:58;;;;;;;1.15;1.05;;;5.70;99.90;;;;;;4912079;29;20222;-68
2023/01/30 18:17:27;;;;;;;1.67;0.75;;;5.70;99.90;;;;;;4918893;29;20333;-69
2023/01/30 18:19:54;;;;;;;0.20;0.20;;;5.70;99.90;;;;;;4914645;29;20215;-68
2023/01/30 18:22:22;;;;;;;2.15;0.63;;;5.70;99.90;;;;;;4919658;29;20759;-68
2023/01/30 18:24:50;;;;;;;1.75;1.10;;;5.70;99.90;;;;;;4915984;29;20348;-69